sensor_id;sensor_type;location;lat;lon;timestamp;temperature;humidity
21439;DHT22;10880;50.302;18.736;2022-07-03T00:01:59;22.50;53.30
21439;DHT22;10880;50.302;18.736;2022-07-03T00:04:25;22.40;53.40
21439;DHT22;10880;50.302;18.736;2022-07-03T00:06:53;22.40;53.30
21439;DHT22;10880;50.302;18.736;2022-07-03T00:09:23;22.40;53.80
21439;DHT22;10880;50.302;18.736;2022-07-03T00:11:50;22.40;53.80
21439;DHT22;10880;50.302;18.736;2022-07-03T00:14:17;22.40;53.40
21439;DHT22;10880;50.302;18.736;2022-07-03T00:16:44;22.40;53.70
21439;DHT22;10880;50.302;18.736;2022-07-03T00:19:10;22.30;53.60
21439;DHT22;10880;50.302;18.736;2022-07-03T00:21:45;22.40;53.80
21439;DHT22;10880;50.302;18.736;2022-07-03T00:24:23;22.30;54.00
21439;DHT22;10880;50.302;18.736;2022-07-03T00:26:53;22.30;54.10
21439;DHT22;10880;50.302;18.736;2022-07-03T00:29:22;22.30;53.90
21439;DHT22;10880;50.302;18.736;2022-07-03T00:31:49;22.30;54.00
21439;DHT22;10880;50.302;18.736;2022-07-03T00:34:18;22.20;54.00
21439;DHT22;10880;50.302;18.736;2022-07-03T00:36:47;22.20;54.00
21439;DHT22;10880;50.302;18.736;2022-07-03T00:39:14;22.20;53.80
21439;DHT22;10880;50.302;18.736;2022-07-03T00:41:40;22.20;53.60
21439;DHT22;10880;50.302;18.736;2022-07-03T00:44:10;22.20;54.00
21439;DHT22;10880;50.302;18.736;2022-07-03T00:46:38;22.20;53.70
21439;DHT22;10880;50.302;18.736;2022-07-03T00:49:09;22.20;54.10
21439;DHT22;10880;50.302;18.736;2022-07-03T00:51:38;22.10;54.00
21439;DHT22;10880;50.302;18.736;2022-07-03T00:54:08;22.10;54.00
21439;DHT22;10880;50.302;18.736;2022-07-03T00:56:39;22.10;53.90
21439;DHT22;10880;50.302;18.736;2022-07-03T00:59:06;22.10;54.00
21439;DHT22;10880;50.302;18.736;2022-07-03T01:01:35;22.00;53.80
21439;DHT22;10880;50.302;18.736;2022-07-03T01:07:02;22.00;54.20
21439;DHT22;10880;50.302;18.736;2022-07-03T01:09:55;22.00;54.20
21439;DHT22;10880;50.302;18.736;2022-07-03T01:15:05;21.90;54.20
21439;DHT22;10880;50.302;18.736;2022-07-03T01:17:54;21.90;54.20
21439;DHT22;10880;50.302;18.736;2022-07-03T01:20:28;21.90;54.30
21439;DHT22;10880;50.302;18.736;2022-07-03T01:22:59;21.90;54.10
21439;DHT22;10880;50.302;18.736;2022-07-03T01:25:44;21.90;54.20
21439;DHT22;10880;50.302;18.736;2022-07-03T01:28:15;21.80;54.30
21439;DHT22;10880;50.302;18.736;2022-07-03T01:30:51;21.80;54.10
21439;DHT22;10880;50.302;18.736;2022-07-03T01:38:30;21.80;54.30
21439;DHT22;10880;50.302;18.736;2022-07-03T01:40:57;21.70;54.20
21439;DHT22;10880;50.302;18.736;2022-07-03T01:43:49;21.70;54.20
21439;DHT22;10880;50.302;18.736;2022-07-03T01:46:17;21.70;54.40
21439;DHT22;10880;50.302;18.736;2022-07-03T01:48:45;21.60;54.20
21439;DHT22;10880;50.302;18.736;2022-07-03T01:51:16;21.60;54.30
21439;DHT22;10880;50.302;18.736;2022-07-03T01:53:48;21.60;54.40
21439;DHT22;10880;50.302;18.736;2022-07-03T01:56:16;21.60;54.50
21439;DHT22;10880;50.302;18.736;2022-07-03T01:58:44;21.50;54.40
21439;DHT22;10880;50.302;18.736;2022-07-03T02:07:05;21.50;54.60
21439;DHT22;10880;50.302;18.736;2022-07-03T02:09:56;21.50;54.60
21439;DHT22;10880;50.302;18.736;2022-07-03T02:12:30;21.40;54.50
21439;DHT22;10880;50.302;18.736;2022-07-03T02:15:07;21.40;54.40
21439;DHT22;10880;50.302;18.736;2022-07-03T02:17:43;21.30;54.50
21439;DHT22;10880;50.302;18.736;2022-07-03T02:20:16;21.40;54.60
21439;DHT22;10880;50.302;18.736;2022-07-03T02:25:41;21.30;54.70
21439;DHT22;10880;50.302;18.736;2022-07-03T02:31:03;21.30;55.60
21439;DHT22;10880;50.302;18.736;2022-07-03T02:33:36;21.20;54.80
21439;DHT22;10880;50.302;18.736;2022-07-03T02:36:06;21.30;54.90
21439;DHT22;10880;50.302;18.736;2022-07-03T02:38:36;21.20;54.80
21439;DHT22;10880;50.302;18.736;2022-07-03T02:41:14;21.20;54.30
21439;DHT22;10880;50.302;18.736;2022-07-03T02:47:00;21.20;55.00
21439;DHT22;10880;50.302;18.736;2022-07-03T02:50:03;21.20;55.10
21439;DHT22;10880;50.302;18.736;2022-07-03T03:03:39;21.10;54.80
21439;DHT22;10880;50.302;18.736;2022-07-03T03:06:14;21.10;55.20
21439;DHT22;10880;50.302;18.736;2022-07-03T03:08:55;21.10;55.30
21439;DHT22;10880;50.302;18.736;2022-07-03T03:14:08;21.10;55.50
21439;DHT22;10880;50.302;18.736;2022-07-03T03:16:37;21.10;55.40
21439;DHT22;10880;50.302;18.736;2022-07-03T03:19:07;21.10;55.50
21439;DHT22;10880;50.302;18.736;2022-07-03T03:21:42;21.10;55.30
21439;DHT22;10880;50.302;18.736;2022-07-03T03:24:11;21.10;55.70
21439;DHT22;10880;50.302;18.736;2022-07-03T03:26:39;21.20;55.80
21439;DHT22;10880;50.302;18.736;2022-07-03T03:29:07;21.20;55.70
21439;DHT22;10880;50.302;18.736;2022-07-03T03:31:33;21.20;55.40
21439;DHT22;10880;50.302;18.736;2022-07-03T03:34:00;21.20;55.50
21439;DHT22;10880;50.302;18.736;2022-07-03T03:36:28;21.20;56.00
21439;DHT22;10880;50.302;18.736;2022-07-03T03:38:55;21.30;56.00
21439;DHT22;10880;50.302;18.736;2022-07-03T03:41:21;21.30;55.70
21439;DHT22;10880;50.302;18.736;2022-07-03T03:43:51;21.30;56.20
21439;DHT22;10880;50.302;18.736;2022-07-03T03:46:18;21.30;55.80
21439;DHT22;10880;50.302;18.736;2022-07-03T03:48:44;21.40;55.90
21439;DHT22;10880;50.302;18.736;2022-07-03T03:51:11;21.40;56.00
21439;DHT22;10880;50.302;18.736;2022-07-03T03:53:39;21.40;56.30
21439;DHT22;10880;50.302;18.736;2022-07-03T03:56:09;21.50;56.30
21439;DHT22;10880;50.302;18.736;2022-07-03T03:58:43;21.50;56.70
21439;DHT22;10880;50.302;18.736;2022-07-03T04:01:11;21.50;56.10
21439;DHT22;10880;50.302;18.736;2022-07-03T04:03:39;21.60;56.70
21439;DHT22;10880;50.302;18.736;2022-07-03T04:06:07;21.60;56.80
21439;DHT22;10880;50.302;18.736;2022-07-03T04:08:38;21.60;56.70
21439;DHT22;10880;50.302;18.736;2022-07-03T04:11:08;21.70;56.80
21439;DHT22;10880;50.302;18.736;2022-07-03T04:13:35;21.70;56.50
21439;DHT22;10880;50.302;18.736;2022-07-03T04:16:02;21.70;56.50
21439;DHT22;10880;50.302;18.736;2022-07-03T04:18:33;21.80;56.80
21439;DHT22;10880;50.302;18.736;2022-07-03T04:21:00;21.80;56.60
21439;DHT22;10880;50.302;18.736;2022-07-03T04:23:26;21.80;57.10
21439;DHT22;10880;50.302;18.736;2022-07-03T04:25:53;21.80;56.60
21439;DHT22;10880;50.302;18.736;2022-07-03T04:28:21;21.90;57.10
21439;DHT22;10880;50.302;18.736;2022-07-03T04:30:49;21.90;56.60
21439;DHT22;10880;50.302;18.736;2022-07-03T04:33:18;21.90;57.40
21439;DHT22;10880;50.302;18.736;2022-07-03T04:35:45;22.00;56.80
21439;DHT22;10880;50.302;18.736;2022-07-03T04:38:11;22.00;57.00
21439;DHT22;10880;50.302;18.736;2022-07-03T04:40:37;22.10;57.10
21439;DHT22;10880;50.302;18.736;2022-07-03T04:43:04;22.10;56.90
21439;DHT22;10880;50.302;18.736;2022-07-03T04:45:30;22.20;56.70
21439;DHT22;10880;50.302;18.736;2022-07-03T04:47:57;22.20;56.90
21439;DHT22;10880;50.302;18.736;2022-07-03T04:50:24;22.20;56.40
21439;DHT22;10880;50.302;18.736;2022-07-03T04:52:50;22.30;57.40
21439;DHT22;10880;50.302;18.736;2022-07-03T04:55:17;22.30;56.70
21439;DHT22;10880;50.302;18.736;2022-07-03T04:57:43;22.40;57.10
21439;DHT22;10880;50.302;18.736;2022-07-03T05:00:10;22.40;57.00
21439;DHT22;10880;50.302;18.736;2022-07-03T05:02:36;22.40;57.30
21439;DHT22;10880;50.302;18.736;2022-07-03T05:05:03;22.50;57.00
21439;DHT22;10880;50.302;18.736;2022-07-03T05:07:30;22.50;57.50
21439;DHT22;10880;50.302;18.736;2022-07-03T05:09:56;22.60;57.10
21439;DHT22;10880;50.302;18.736;2022-07-03T05:12:24;22.60;57.50
21439;DHT22;10880;50.302;18.736;2022-07-03T05:14:52;22.60;57.20
21439;DHT22;10880;50.302;18.736;2022-07-03T05:17:18;22.70;57.30
21439;DHT22;10880;50.302;18.736;2022-07-03T05:19:45;22.70;57.30
21439;DHT22;10880;50.302;18.736;2022-07-03T05:22:11;22.70;57.00
21439;DHT22;10880;50.302;18.736;2022-07-03T05:24:38;22.80;57.00
21439;DHT22;10880;50.302;18.736;2022-07-03T05:27:04;22.80;57.20
21439;DHT22;10880;50.302;18.736;2022-07-03T05:29:31;22.90;57.30
21439;DHT22;10880;50.302;18.736;2022-07-03T05:31:57;22.90;57.10
21439;DHT22;10880;50.302;18.736;2022-07-03T05:34:24;22.90;57.60
21439;DHT22;10880;50.302;18.736;2022-07-03T05:36:54;22.90;57.20
21439;DHT22;10880;50.302;18.736;2022-07-03T05:39:22;23.00;57.70
21439;DHT22;10880;50.302;18.736;2022-07-03T05:41:57;23.00;57.70
21439;DHT22;10880;50.302;18.736;2022-07-03T05:44:24;23.10;57.40
21439;DHT22;10880;50.302;18.736;2022-07-03T05:46:50;23.10;57.50
21439;DHT22;10880;50.302;18.736;2022-07-03T05:49:18;23.10;57.50
21439;DHT22;10880;50.302;18.736;2022-07-03T05:51:44;23.20;57.40
21439;DHT22;10880;50.302;18.736;2022-07-03T05:54:10;23.20;57.30
21439;DHT22;10880;50.302;18.736;2022-07-03T05:56:37;23.20;57.70
21439;DHT22;10880;50.302;18.736;2022-07-03T05:59:05;23.30;57.60
21439;DHT22;10880;50.302;18.736;2022-07-03T06:01:35;23.30;58.00
21439;DHT22;10880;50.302;18.736;2022-07-03T06:04:02;23.40;57.40
21439;DHT22;10880;50.302;18.736;2022-07-03T06:06:32;23.40;58.20
21439;DHT22;10880;50.302;18.736;2022-07-03T06:08:59;23.40;57.70
21439;DHT22;10880;50.302;18.736;2022-07-03T06:11:26;23.50;57.50
21439;DHT22;10880;50.302;18.736;2022-07-03T06:13:54;23.50;57.60
21439;DHT22;10880;50.302;18.736;2022-07-03T06:16:21;23.70;57.80
21439;DHT22;10880;50.302;18.736;2022-07-03T06:18:48;23.70;57.80
21439;DHT22;10880;50.302;18.736;2022-07-03T06:21:15;23.80;58.20
21439;DHT22;10880;50.302;18.736;2022-07-03T06:23:42;23.90;58.50
21439;DHT22;10880;50.302;18.736;2022-07-03T06:26:08;24.10;59.10
21439;DHT22;10880;50.302;18.736;2022-07-03T06:28:34;24.30;59.30
21439;DHT22;10880;50.302;18.736;2022-07-03T06:31:01;24.60;59.30
21439;DHT22;10880;50.302;18.736;2022-07-03T06:33:27;24.90;59.40
21439;DHT22;10880;50.302;18.736;2022-07-03T06:35:54;25.10;59.20
21439;DHT22;10880;50.302;18.736;2022-07-03T06:38:20;25.40;59.00
21439;DHT22;10880;50.302;18.736;2022-07-03T06:40:47;25.70;58.60
21439;DHT22;10880;50.302;18.736;2022-07-03T06:43:13;25.90;58.20
21439;DHT22;10880;50.302;18.736;2022-07-03T06:45:39;26.10;57.90
21439;DHT22;10880;50.302;18.736;2022-07-03T06:48:06;26.30;57.20
21439;DHT22;10880;50.302;18.736;2022-07-03T06:50:32;26.50;56.80
21439;DHT22;10880;50.302;18.736;2022-07-03T06:52:59;26.60;56.20
21439;DHT22;10880;50.302;18.736;2022-07-03T06:55:27;26.70;56.00
21439;DHT22;10880;50.302;18.736;2022-07-03T06:57:53;26.80;55.70
21439;DHT22;10880;50.302;18.736;2022-07-03T07:00:20;26.80;54.80
21439;DHT22;10880;50.302;18.736;2022-07-03T07:02:46;26.80;54.70
21439;DHT22;10880;50.302;18.736;2022-07-03T07:05:12;26.90;54.70
21439;DHT22;10880;50.302;18.736;2022-07-03T07:07:39;26.90;54.60
21439;DHT22;10880;50.302;18.736;2022-07-03T07:10:06;26.80;54.40
21439;DHT22;10880;50.302;18.736;2022-07-03T07:12:33;26.80;54.70
21439;DHT22;10880;50.302;18.736;2022-07-03T07:14:59;26.80;54.40
21439;DHT22;10880;50.302;18.736;2022-07-03T07:17:26;26.80;54.30
21439;DHT22;10880;50.302;18.736;2022-07-03T07:19:54;26.80;54.30
21439;DHT22;10880;50.302;18.736;2022-07-03T07:22:22;26.80;54.70
21439;DHT22;10880;50.302;18.736;2022-07-03T07:24:50;26.70;54.40
21439;DHT22;10880;50.302;18.736;2022-07-03T07:27:16;26.70;54.20
21439;DHT22;10880;50.302;18.736;2022-07-03T07:29:43;26.70;54.30
21439;DHT22;10880;50.302;18.736;2022-07-03T07:32:09;26.70;54.50
21439;DHT22;10880;50.302;18.736;2022-07-03T07:34:36;26.70;54.20
21439;DHT22;10880;50.302;18.736;2022-07-03T07:37:02;26.70;54.30
21439;DHT22;10880;50.302;18.736;2022-07-03T07:39:29;26.70;54.70
21439;DHT22;10880;50.302;18.736;2022-07-03T07:41:55;26.70;54.40
21439;DHT22;10880;50.302;18.736;2022-07-03T07:44:22;26.70;54.30
21439;DHT22;10880;50.302;18.736;2022-07-03T07:46:49;26.80;54.40
21439;DHT22;10880;50.302;18.736;2022-07-03T07:49:15;26.80;54.20
21439;DHT22;10880;50.302;18.736;2022-07-03T07:51:42;26.80;54.50
21439;DHT22;10880;50.302;18.736;2022-07-03T07:54:08;26.80;54.20
21439;DHT22;10880;50.302;18.736;2022-07-03T07:56:35;26.90;54.40
21439;DHT22;10880;50.302;18.736;2022-07-03T07:59:01;26.90;54.40
21439;DHT22;10880;50.302;18.736;2022-07-03T08:01:28;26.90;54.40
21439;DHT22;10880;50.302;18.736;2022-07-03T08:04:13;27.00;54.70
21439;DHT22;10880;50.302;18.736;2022-07-03T08:06:57;27.00;54.60
21439;DHT22;10880;50.302;18.736;2022-07-03T08:09:24;27.10;54.50
21439;DHT22;10880;50.302;18.736;2022-07-03T08:11:50;27.10;54.40
21439;DHT22;10880;50.302;18.736;2022-07-03T08:14:17;27.10;54.30
21439;DHT22;10880;50.302;18.736;2022-07-03T08:16:43;27.20;54.20
21439;DHT22;10880;50.302;18.736;2022-07-03T08:19:11;27.30;54.40
21439;DHT22;10880;50.302;18.736;2022-07-03T08:21:37;27.30;54.10
21439;DHT22;10880;50.302;18.736;2022-07-03T08:24:04;27.40;54.10
21439;DHT22;10880;50.302;18.736;2022-07-03T08:26:43;27.40;54.40
21439;DHT22;10880;50.302;18.736;2022-07-03T08:29:13;27.50;54.20
21439;DHT22;10880;50.302;18.736;2022-07-03T08:31:40;27.50;54.00
21439;DHT22;10880;50.302;18.736;2022-07-03T08:34:06;27.60;53.80
21439;DHT22;10880;50.302;18.736;2022-07-03T08:36:34;27.60;53.80
21439;DHT22;10880;50.302;18.736;2022-07-03T08:39:00;27.60;53.40
21439;DHT22;10880;50.302;18.736;2022-07-03T08:41:27;27.70;53.50
21439;DHT22;10880;50.302;18.736;2022-07-03T08:44:03;27.70;53.80
21439;DHT22;10880;50.302;18.736;2022-07-03T08:46:32;27.70;53.70
21439;DHT22;10880;50.302;18.736;2022-07-03T08:49:01;27.80;53.70
21439;DHT22;10880;50.302;18.736;2022-07-03T08:51:34;27.80;53.80
21439;DHT22;10880;50.302;18.736;2022-07-03T08:54:04;27.80;53.50
21439;DHT22;10880;50.302;18.736;2022-07-03T08:56:32;27.80;53.60
21439;DHT22;10880;50.302;18.736;2022-07-03T08:59:03;27.90;53.30
21439;DHT22;10880;50.302;18.736;2022-07-03T09:01:34;27.90;53.40
21439;DHT22;10880;50.302;18.736;2022-07-03T09:04:03;27.90;53.30
21439;DHT22;10880;50.302;18.736;2022-07-03T09:06:43;27.90;53.30
21439;DHT22;10880;50.302;18.736;2022-07-03T09:09:10;28.00;53.20
21439;DHT22;10880;50.302;18.736;2022-07-03T09:11:44;28.00;53.00
21439;DHT22;10880;50.302;18.736;2022-07-03T09:14:12;28.00;52.90
21439;DHT22;10880;50.302;18.736;2022-07-03T09:16:49;28.00;52.50
21439;DHT22;10880;50.302;18.736;2022-07-03T09:19:17;28.00;52.90
21439;DHT22;10880;50.302;18.736;2022-07-03T09:22:02;28.00;53.10
21439;DHT22;10880;50.302;18.736;2022-07-03T09:24:32;28.10;52.80
21439;DHT22;10880;50.302;18.736;2022-07-03T09:27:15;28.10;52.90
21439;DHT22;10880;50.302;18.736;2022-07-03T09:30:00;28.10;53.00
21439;DHT22;10880;50.302;18.736;2022-07-03T09:32:47;28.20;52.70
21439;DHT22;10880;50.302;18.736;2022-07-03T09:35:36;28.20;52.60
21439;DHT22;10880;50.302;18.736;2022-07-03T09:38:04;28.20;52.70
21439;DHT22;10880;50.302;18.736;2022-07-03T09:40:50;28.30;52.50
21439;DHT22;10880;50.302;18.736;2022-07-03T09:43:30;28.40;52.60
21439;DHT22;10880;50.302;18.736;2022-07-03T09:48:30;28.40;52.40
21439;DHT22;10880;50.302;18.736;2022-07-03T09:56:25;28.50;52.50
21439;DHT22;10880;50.302;18.736;2022-07-03T09:59:15;28.50;52.40
21439;DHT22;10880;50.302;18.736;2022-07-03T10:02:08;28.50;52.30
21439;DHT22;10880;50.302;18.736;2022-07-03T10:04:35;28.60;52.70
21439;DHT22;10880;50.302;18.736;2022-07-03T10:07:03;28.60;51.90
21439;DHT22;10880;50.302;18.736;2022-07-03T10:09:34;28.70;51.90
21439;DHT22;10880;50.302;18.736;2022-07-03T10:12:03;28.70;52.20
21439;DHT22;10880;50.302;18.736;2022-07-03T10:14:32;28.70;52.10
21439;DHT22;10880;50.302;18.736;2022-07-03T10:16:58;28.80;52.00
21439;DHT22;10880;50.302;18.736;2022-07-03T10:19:30;28.80;51.90
21439;DHT22;10880;50.302;18.736;2022-07-03T10:22:06;28.80;51.90
21439;DHT22;10880;50.302;18.736;2022-07-03T10:24:35;28.80;51.80
21439;DHT22;10880;50.302;18.736;2022-07-03T10:27:04;28.90;51.60
21439;DHT22;10880;50.302;18.736;2022-07-03T10:29:36;28.90;51.60
21439;DHT22;10880;50.302;18.736;2022-07-03T10:32:07;28.80;51.40
21439;DHT22;10880;50.302;18.736;2022-07-03T10:34:37;28.70;51.70
21439;DHT22;10880;50.302;18.736;2022-07-03T10:37:06;28.70;51.50
21439;DHT22;10880;50.302;18.736;2022-07-03T10:39:57;28.80;51.70
21439;DHT22;10880;50.302;18.736;2022-07-03T10:42:50;28.80;51.30
21439;DHT22;10880;50.302;18.736;2022-07-03T10:45:37;28.90;51.30
21439;DHT22;10880;50.302;18.736;2022-07-03T10:48:05;29.00;51.00
21439;DHT22;10880;50.302;18.736;2022-07-03T10:50:31;29.00;50.90
21439;DHT22;10880;50.302;18.736;2022-07-03T10:53:22;29.00;50.90
21439;DHT22;10880;50.302;18.736;2022-07-03T10:56:05;29.10;50.80
21439;DHT22;10880;50.302;18.736;2022-07-03T10:58:57;29.10;51.20
21439;DHT22;10880;50.302;18.736;2022-07-03T11:01:31;29.10;50.80
21439;DHT22;10880;50.302;18.736;2022-07-03T11:04:00;29.10;51.00
21439;DHT22;10880;50.302;18.736;2022-07-03T11:09:22;29.20;50.70
21439;DHT22;10880;50.302;18.736;2022-07-03T11:11:49;29.20;50.50
21439;DHT22;10880;50.302;18.736;2022-07-03T11:14:26;29.30;50.80
21439;DHT22;10880;50.302;18.736;2022-07-03T11:17:15;29.30;50.90
21439;DHT22;10880;50.302;18.736;2022-07-03T11:19:42;29.30;50.40
21439;DHT22;10880;50.302;18.736;2022-07-03T11:22:18;29.40;50.40
21439;DHT22;10880;50.302;18.736;2022-07-03T11:24:52;29.40;50.10
21439;DHT22;10880;50.302;18.736;2022-07-03T11:27:21;29.50;49.80
21439;DHT22;10880;50.302;18.736;2022-07-03T11:29:55;29.40;50.00
21439;DHT22;10880;50.302;18.736;2022-07-03T11:35:47;29.50;49.80
21439;DHT22;10880;50.302;18.736;2022-07-03T11:38:20;29.50;49.70
21439;DHT22;10880;50.302;18.736;2022-07-03T11:40:50;29.60;49.90
21439;DHT22;10880;50.302;18.736;2022-07-03T11:43:19;29.60;49.70
21439;DHT22;10880;50.302;18.736;2022-07-03T11:45:47;29.60;49.70
21439;DHT22;10880;50.302;18.736;2022-07-03T11:48:20;29.60;49.70
21439;DHT22;10880;50.302;18.736;2022-07-03T11:50:49;29.60;49.60
21439;DHT22;10880;50.302;18.736;2022-07-03T11:53:28;29.60;49.50
21439;DHT22;10880;50.302;18.736;2022-07-03T11:58:50;29.60;49.40
21439;DHT22;10880;50.302;18.736;2022-07-03T12:01:30;29.60;49.10
21439;DHT22;10880;50.302;18.736;2022-07-03T12:04:15;29.70;49.00
21439;DHT22;10880;50.302;18.736;2022-07-03T12:09:36;29.70;49.10
21439;DHT22;10880;50.302;18.736;2022-07-03T12:14:47;29.70;48.90
21439;DHT22;10880;50.302;18.736;2022-07-03T12:17:25;29.70;48.80
21439;DHT22;10880;50.302;18.736;2022-07-03T12:19:57;29.70;48.50
21439;DHT22;10880;50.302;18.736;2022-07-03T12:22:33;29.70;48.60
21439;DHT22;10880;50.302;18.736;2022-07-03T12:25:09;29.70;48.70
21439;DHT22;10880;50.302;18.736;2022-07-03T12:27:44;29.70;48.50
21439;DHT22;10880;50.302;18.736;2022-07-03T12:30:18;29.70;48.60
21439;DHT22;10880;50.302;18.736;2022-07-03T12:32:46;29.80;48.60
21439;DHT22;10880;50.302;18.736;2022-07-03T12:35:21;29.80;48.60
21439;DHT22;10880;50.302;18.736;2022-07-03T12:37:47;29.80;48.40
21439;DHT22;10880;50.302;18.736;2022-07-03T12:40:14;29.80;48.10
21439;DHT22;10880;50.302;18.736;2022-07-03T12:42:54;29.80;48.10
21439;DHT22;10880;50.302;18.736;2022-07-03T12:45:30;29.80;48.20
21439;DHT22;10880;50.302;18.736;2022-07-03T12:48:04;29.80;48.40
21439;DHT22;10880;50.302;18.736;2022-07-03T12:50:49;29.90;48.30
21439;DHT22;10880;50.302;18.736;2022-07-03T12:53:28;29.90;48.20
21439;DHT22;10880;50.302;18.736;2022-07-03T12:56:04;29.90;48.20
21439;DHT22;10880;50.302;18.736;2022-07-03T12:58:37;29.90;48.10
21439;DHT22;10880;50.302;18.736;2022-07-03T13:02:35;29.90;48.20
21439;DHT22;10880;50.302;18.736;2022-07-03T13:05:22;29.90;48.30
21439;DHT22;10880;50.302;18.736;2022-07-03T13:07:55;29.90;48.00
21439;DHT22;10880;50.302;18.736;2022-07-03T13:10:24;30.00;47.90
21439;DHT22;10880;50.302;18.736;2022-07-03T13:12:57;29.90;48.00
21439;DHT22;10880;50.302;18.736;2022-07-03T13:15:29;29.90;47.80
21439;DHT22;10880;50.302;18.736;2022-07-03T13:20:27;30.00;47.80
21439;DHT22;10880;50.302;18.736;2022-07-03T13:23:07;29.90;47.70
21439;DHT22;10880;50.302;18.736;2022-07-03T13:25:35;29.90;47.80
21439;DHT22;10880;50.302;18.736;2022-07-03T13:30:30;30.00;47.40
21439;DHT22;10880;50.302;18.736;2022-07-03T13:32:56;29.90;47.10
21439;DHT22;10880;50.302;18.736;2022-07-03T13:35:24;30.00;47.00
21439;DHT22;10880;50.302;18.736;2022-07-03T13:37:53;30.00;47.60
21439;DHT22;10880;50.302;18.736;2022-07-03T13:40:21;30.00;47.20
21439;DHT22;10880;50.302;18.736;2022-07-03T13:42:48;30.00;47.50
21439;DHT22;10880;50.302;18.736;2022-07-03T13:45:14;30.00;47.00
21439;DHT22;10880;50.302;18.736;2022-07-03T13:47:43;30.00;47.50
21439;DHT22;10880;50.302;18.736;2022-07-03T13:50:13;30.00;47.60
21439;DHT22;10880;50.302;18.736;2022-07-03T13:52:40;30.00;47.60
21439;DHT22;10880;50.302;18.736;2022-07-03T13:55:06;30.00;46.90
21439;DHT22;10880;50.302;18.736;2022-07-03T13:57:36;30.00;47.40
21439;DHT22;10880;50.302;18.736;2022-07-03T14:00:02;30.00;46.90
21439;DHT22;10880;50.302;18.736;2022-07-03T14:02:50;30.00;47.00
21439;DHT22;10880;50.302;18.736;2022-07-03T14:05:17;30.00;46.80
21439;DHT22;10880;50.302;18.736;2022-07-03T14:07:44;30.10;46.50
21439;DHT22;10880;50.302;18.736;2022-07-03T14:10:10;30.10;46.60
21439;DHT22;10880;50.302;18.736;2022-07-03T14:12:36;30.00;46.40
21439;DHT22;10880;50.302;18.736;2022-07-03T14:15:03;30.00;46.30
21439;DHT22;10880;50.302;18.736;2022-07-03T14:17:30;30.10;46.80
21439;DHT22;10880;50.302;18.736;2022-07-03T14:19:58;30.10;46.60
21439;DHT22;10880;50.302;18.736;2022-07-03T14:22:24;30.00;46.80
21439;DHT22;10880;50.302;18.736;2022-07-03T14:24:54;30.10;46.30
21439;DHT22;10880;50.302;18.736;2022-07-03T14:27:21;30.10;46.30
21439;DHT22;10880;50.302;18.736;2022-07-03T14:30:06;30.10;46.70
21439;DHT22;10880;50.302;18.736;2022-07-03T14:32:52;30.10;46.70
21439;DHT22;10880;50.302;18.736;2022-07-03T14:35:18;30.10;46.20
21439;DHT22;10880;50.302;18.736;2022-07-03T14:37:45;30.10;46.30
21439;DHT22;10880;50.302;18.736;2022-07-03T14:40:12;30.10;46.30
21439;DHT22;10880;50.302;18.736;2022-07-03T14:42:41;30.10;46.30
21439;DHT22;10880;50.302;18.736;2022-07-03T14:45:10;30.10;46.10
21439;DHT22;10880;50.302;18.736;2022-07-03T14:47:36;30.10;45.60
21439;DHT22;10880;50.302;18.736;2022-07-03T14:50:06;30.10;46.20
21439;DHT22;10880;50.302;18.736;2022-07-03T14:52:34;30.10;46.00
21439;DHT22;10880;50.302;18.736;2022-07-03T14:55:01;30.10;46.00
21439;DHT22;10880;50.302;18.736;2022-07-03T15:00:36;30.10;46.10
21439;DHT22;10880;50.302;18.736;2022-07-03T15:03:07;30.10;45.90
21439;DHT22;10880;50.302;18.736;2022-07-03T15:05:38;30.10;46.10
21439;DHT22;10880;50.302;18.736;2022-07-03T15:10:52;29.80;45.80
21439;DHT22;10880;50.302;18.736;2022-07-03T15:13:21;30.10;46.00
21439;DHT22;10880;50.302;18.736;2022-07-03T15:15:53;30.10;46.00
21439;DHT22;10880;50.302;18.736;2022-07-03T15:18:20;30.10;45.80
21439;DHT22;10880;50.302;18.736;2022-07-03T15:20:53;30.10;45.50
21439;DHT22;10880;50.302;18.736;2022-07-03T15:23:21;30.10;46.00
21439;DHT22;10880;50.302;18.736;2022-07-03T15:25:51;30.10;45.60
21439;DHT22;10880;50.302;18.736;2022-07-03T15:28:21;30.10;44.70
21439;DHT22;10880;50.302;18.736;2022-07-03T15:30:56;30.00;46.00
21439;DHT22;10880;50.302;18.736;2022-07-03T15:33:23;30.00;45.60
21439;DHT22;10880;50.302;18.736;2022-07-03T15:36:27;30.00;45.90
21439;DHT22;10880;50.302;18.736;2022-07-03T15:39:06;30.00;45.80
21439;DHT22;10880;50.302;18.736;2022-07-03T15:44:31;30.00;45.80
21439;DHT22;10880;50.302;18.736;2022-07-03T15:50:05;30.00;45.80
21439;DHT22;10880;50.302;18.736;2022-07-03T15:52:35;30.00;45.70
21439;DHT22;10880;50.302;18.736;2022-07-03T15:55:06;30.00;45.70
21439;DHT22;10880;50.302;18.736;2022-07-03T16:00:35;29.90;45.80
21439;DHT22;10880;50.302;18.736;2022-07-03T16:03:25;29.90;45.70
21439;DHT22;10880;50.302;18.736;2022-07-03T16:06:03;29.90;45.50
21439;DHT22;10880;50.302;18.736;2022-07-03T16:08:31;29.80;45.70
21439;DHT22;10880;50.302;18.736;2022-07-03T16:16:01;29.90;45.70
21439;DHT22;10880;50.302;18.736;2022-07-03T16:18:31;29.90;45.70
21439;DHT22;10880;50.302;18.736;2022-07-03T16:21:09;29.90;45.50
21439;DHT22;10880;50.302;18.736;2022-07-03T16:23:39;29.90;45.70
21439;DHT22;10880;50.302;18.736;2022-07-03T16:26:09;29.90;45.60
21439;DHT22;10880;50.302;18.736;2022-07-03T16:28:35;29.90;45.60
21439;DHT22;10880;50.302;18.736;2022-07-03T16:31:04;29.90;45.60
21439;DHT22;10880;50.302;18.736;2022-07-03T16:33:33;29.80;45.50
21439;DHT22;10880;50.302;18.736;2022-07-03T16:39:15;29.90;44.80
21439;DHT22;10880;50.302;18.736;2022-07-03T16:41:40;29.80;45.40
21439;DHT22;10880;50.302;18.736;2022-07-03T16:44:09;29.80;45.50
21439;DHT22;10880;50.302;18.736;2022-07-03T16:46:41;29.80;45.50
21439;DHT22;10880;50.302;18.736;2022-07-03T16:49:08;29.80;45.50
21439;DHT22;10880;50.302;18.736;2022-07-03T16:51:43;29.80;45.20
21439;DHT22;10880;50.302;18.736;2022-07-03T16:54:13;29.60;45.80
21439;DHT22;10880;50.302;18.736;2022-07-03T16:56:43;29.60;45.70
21439;DHT22;10880;50.302;18.736;2022-07-03T16:59:10;29.60;45.80
21439;DHT22;10880;50.302;18.736;2022-07-03T17:01:43;29.70;45.80
21439;DHT22;10880;50.302;18.736;2022-07-03T17:04:12;29.70;45.80
21439;DHT22;10880;50.302;18.736;2022-07-03T17:06:41;29.70;45.60
21439;DHT22;10880;50.302;18.736;2022-07-03T17:09:08;29.70;45.50